Time;durP1;ratioP1;P1;durP2;ratioP2;P2;SDS_P1;SDS_P2;PMS_P1;PMS_P2;Temp;Humidity;BMP_temperature;BMP_pressure;BME280_temperature;BME280_humidity;BME280_pressure;Samples;Min_cycle;Max_cycle;Signal;HPM_P1;HPM_P2
2023/06/21 00:01:24;;;;;;;48.63;36.30;;;20.50;99.90;;;;;;5192201;28;20705;-45
2023/06/21 00:03:57;;;;;;;58.47;40.83;;;20.50;99.90;;;;;;5206221;28;20183;-45
2023/06/21 00:06:28;;;;;;;51.10;39.60;;;20.50;99.90;;;;;;5208269;28;20179;-43
2023/06/21 00:08:59;;;;;;;52.40;36.93;;;20.50;99.90;;;;;;5192037;28;20460;-44
2023/06/21 00:11:31;;;;;;;50.20;36.67;;;20.50;99.90;;;;;;5177542;28;20463;-45
2023/06/21 00:14:02;;;;;;;44.40;32.67;;;20.40;99.90;;;;;;5206803;28;20275;-44
2023/06/21 00:16:32;;;;;;;51.30;35.03;;;20.40;99.90;;;;;;5204427;28;20509;-44
2023/06/21 00:19:03;;;;;;;50.27;35.17;;;20.40;99.90;;;;;;5211266;28;20183;-44
2023/06/21 00:21:34;;;;;;;49.10;34.70;;;20.40;99.90;;;;;;5208269;28;20649;-45
2023/06/21 00:24:08;;;;;;;44.70;34.40;;;20.40;99.90;;;;;;5194310;28;20199;-45
2023/06/21 00:26:38;;;;;;;40.43;31.67;;;20.40;99.90;;;;;;5204963;28;20207;-45
2023/06/21 00:29:09;;;;;;;39.10;30.37;;;20.40;99.90;;;;;;5207664;28;20497;-45
2023/06/21 00:31:40;;;;;;;42.10;30.97;;;20.40;99.90;;;;;;5181218;28;20210;-44
2023/06/21 00:34:11;;;;;;;42.53;30.80;;;20.30;99.90;;;;;;5194353;28;20187;-44
2023/06/21 00:36:42;;;;;;;44.10;27.80;;;20.30;99.90;;;;;;5208542;28;20600;-44
2023/06/21 00:39:12;;;;;;;35.70;27.87;;;20.30;99.90;;;;;;5200888;28;20201;-44
2023/06/21 00:41:43;;;;;;;42.73;32.50;;;20.30;99.90;;;;;;5202670;28;20190;-44
2023/06/21 00:44:14;;;;;;;42.60;32.40;;;20.30;99.90;;;;;;5194643;28;20219;-44
2023/06/21 00:46:45;;;;;;;44.27;33.83;;;20.20;99.90;;;;;;5194388;28;20550;-43
2023/06/21 00:49:16;;;;;;;43.63;34.73;;;20.20;99.90;;;;;;5203127;28;20680;-44
2023/06/21 00:51:47;;;;;;;46.03;34.87;;;20.20;99.90;;;;;;5199368;28;20199;-45
2023/06/21 00:54:18;;;;;;;43.63;33.30;;;20.20;99.90;;;;;;5219746;28;20678;-44
2023/06/21 00:56:49;;;;;;;42.93;32.83;;;20.20;99.90;;;;;;5192232;28;20527;-44
2023/06/21 00:59:20;;;;;;;43.73;32.87;;;20.20;99.90;;;;;;5209129;28;20430;-43
2023/06/21 01:01:50;;;;;;;42.83;33.60;;;20.20;99.90;;;;;;5192339;28;20179;-43
2023/06/21 01:04:27;;;;;;;44.07;33.97;;;20.20;99.90;;;;;;5203678;28;20258;-44
2023/06/21 01:07:04;;;;;;;42.47;30.90;;;20.10;99.90;;;;;;5174479;28;20199;-44
2023/06/21 01:10:16;;;;;;;39.77;28.97;;;20.20;99.90;;;;;;5190135;28;20449;-44
2023/06/21 01:13:22;;;;;;;36.33;28.97;;;20.20;99.90;;;;;;5180808;28;20470;-44
2023/06/21 01:16:02;;;;;;;38.33;27.00;;;20.20;99.90;;;;;;5206393;28;20803;-44
2023/06/21 01:18:34;;;;;;;37.13;28.57;;;20.30;99.90;;;;;;5192650;28;20462;-45
2023/06/21 01:21:06;;;;;;;34.77;25.63;;;20.30;99.90;;;;;;5203392;28;20525;-45
2023/06/21 01:23:52;;;;;;;31.63;26.30;;;20.40;99.90;;;;;;5201672;28;20523;-44
2023/06/21 01:26:59;;;;;;;30.33;26.27;;;20.40;99.90;;;;;;5191432;28;20434;-45
2023/06/21 01:29:33;;;;;;;25.97;22.63;;;20.40;99.90;;;;;;5187715;28;20437;-45
2023/06/21 01:32:08;;;;;;;35.23;26.00;;;20.40;99.90;;;;;;5190873;28;20540;-45
2023/06/21 01:34:39;;;;;;;43.80;31.40;;;20.40;99.90;;;;;;5193125;28;20433;-45
2023/06/21 01:37:10;;;;;;;35.53;26.40;;;20.40;99.90;;;;;;5181720;28;20466;-45
2023/06/21 01:39:41;;;;;;;34.50;22.90;;;20.50;99.90;;;;;;5183343;28;20458;-45
2023/06/21 01:42:11;;;;;;;29.27;24.00;;;20.50;99.90;;;;;;5180335;28;20287;-44
2023/06/21 01:44:42;;;;;;;43.33;27.13;;;20.50;99.90;;;;;;5195851;28;20185;-45
2023/06/21 01:47:13;;;;;;;34.53;27.73;;;20.50;99.90;;;;;;5202616;28;20207;-44
2023/06/21 01:49:46;;;;;;;33.77;27.23;;;20.50;99.90;;;;;;5185781;28;20192;-44
2023/06/21 01:52:19;;;;;;;33.07;26.20;;;20.50;99.90;;;;;;5192348;28;20481;-44
2023/06/21 01:54:50;;;;;;;36.93;28.50;;;20.60;99.90;;;;;;5183265;28;20448;-44
2023/06/21 01:57:23;;;;;;;28.93;23.30;;;20.60;99.90;;;;;;5202105;28;21022;-44
2023/06/21 01:59:54;;;;;;;28.63;21.97;;;20.60;99.90;;;;;;5179843;28;20173;-44
2023/06/21 02:02:25;;;;;;;29.83;23.93;;;20.70;99.90;;;;;;5185089;28;20445;-44
2023/06/21 02:04:57;;;;;;;31.37;23.80;;;20.70;99.90;;;;;;5201649;28;20187;-44
2023/06/21 02:07:28;;;;;;;29.17;24.23;;;20.70;99.90;;;;;;5192516;28;20465;-44
2023/06/21 02:09:59;;;;;;;29.77;24.20;;;20.80;99.90;;;;;;5198488;28;20453;-44
2023/06/21 02:12:33;;;;;;;32.30;23.03;;;20.80;99.90;;;;;;5186698;28;20210;-44
2023/06/21 02:15:04;;;;;;;26.20;22.13;;;20.80;99.90;;;;;;5203348;28;20800;-43
2023/06/21 02:17:34;;;;;;;29.57;23.70;;;20.80;99.90;;;;;;5206416;28;20461;-44
2023/06/21 02:20:12;;;;;;;35.43;24.87;;;20.80;99.90;;;;;;5203625;28;20410;-44
2023/06/21 02:22:43;;;;;;;30.27;24.17;;;20.80;99.90;;;;;;5212087;28;20211;-45
2023/06/21 02:25:16;;;;;;;31.57;25.20;;;20.80;99.90;;;;;;5208135;28;20441;-44
2023/06/21 02:27:47;;;;;;;29.30;22.80;;;20.80;99.90;;;;;;5205443;28;20489;-44
2023/06/21 02:30:17;;;;;;;32.53;25.83;;;20.70;99.90;;;;;;5201436;28;20477;-44
2023/06/21 02:32:48;;;;;;;32.83;25.30;;;20.70;99.90;;;;;;5186343;28;20200;-45
2023/06/21 02:35:19;;;;;;;29.10;22.70;;;20.60;99.90;;;;;;5204968;28;20184;-44
2023/06/21 02:37:49;;;;;;;32.13;23.80;;;20.50;99.90;;;;;;5192079;28;20686;-43
2023/06/21 02:40:20;;;;;;;31.17;23.00;;;20.50;99.90;;;;;;5185768;28;20203;-44
2023/06/21 02:42:51;;;;;;;36.90;25.90;;;20.50;99.90;;;;;;5195155;28;20184;-44
2023/06/21 02:45:22;;;;;;;37.53;24.90;;;20.40;99.90;;;;;;5181683;28;20196;-45
2023/06/21 02:47:52;;;;;;;44.03;29.10;;;20.30;99.90;;;;;;5206688;28;20206;-45
2023/06/21 02:50:23;;;;;;;41.53;27.70;;;20.20;99.90;;;;;;5205484;28;20203;-46
2023/06/21 02:52:54;;;;;;;31.80;26.23;;;20.10;99.90;;;;;;5170745;28;20207;-46
2023/06/21 02:55:25;;;;;;;46.77;34.20;;;20.00;99.90;;;;;;5195874;28;20226;-46
2023/06/21 02:57:55;;;;;;;43.17;29.83;;;20.00;99.90;;;;;;5193869;28;20217;-45
2023/06/21 03:00:31;;;;;;;45.57;33.40;;;20.00;99.90;;;;;;5197590;28;20184;-46
2023/06/21 03:03:02;;;;;;;38.30;28.50;;;19.90;99.90;;;;;;5207129;28;20520;-46
2023/06/21 03:05:39;;;;;;;47.27;33.10;;;19.80;99.90;;;;;;5186150;28;20450;-46
2023/06/21 03:08:11;;;;;;;45.57;34.80;;;19.80;99.90;;;;;;5203616;28;20449;-45
2023/06/21 03:10:42;;;;;;;57.20;40.20;;;19.80;99.90;;;;;;5180492;28;20430;-46
2023/06/21 03:13:12;;;;;;;64.33;46.03;;;19.80;99.90;;;;;;5194848;28;20826;-45
2023/06/21 03:15:43;;;;;;;68.10;44.97;;;19.80;99.90;;;;;;5183341;28;20191;-45
2023/06/21 03:18:15;;;;;;;54.60;40.30;;;19.70;99.90;;;;;;5203130;28;20207;-45
2023/06/21 03:20:49;;;;;;;56.30;37.37;;;19.70;99.90;;;;;;5176498;28;20676;-46
2023/06/21 03:23:20;;;;;;;72.10;48.90;;;19.70;99.90;;;;;;5183379;28;20437;-45
2023/06/21 03:25:51;;;;;;;82.80;50.50;;;19.70;99.90;;;;;;5201000;28;20478;-45
2023/06/21 03:28:22;;;;;;;75.43;51.40;;;19.70;99.90;;;;;;5185883;28;20620;-45
2023/06/21 03:30:53;;;;;;;83.27;53.70;;;19.70;99.90;;;;;;5185343;28;20195;-45
2023/06/21 03:33:24;;;;;;;80.23;54.97;;;19.70;99.90;;;;;;5204455;28;20211;-45
2023/06/21 03:35:54;;;;;;;103.93;59.73;;;19.70;99.90;;;;;;5204528;28;20184;-45
2023/06/21 03:38:25;;;;;;;89.10;56.50;;;19.70;99.90;;;;;;5204839;28;20438;-45
2023/06/21 03:40:56;;;;;;;79.27;53.33;;;19.70;99.90;;;;;;5203971;28;20203;-45
2023/06/21 03:43:26;;;;;;;67.17;47.60;;;19.80;99.90;;;;;;5198900;28;20191;-45
2023/06/21 03:45:58;;;;;;;56.50;42.03;;;19.80;99.90;;;;;;5179422;28;20230;-45
2023/06/21 03:48:29;;;;;;;61.97;42.93;;;19.80;99.90;;;;;;5196257;28;20204;-45
2023/06/21 03:51:00;;;;;;;55.80;41.60;;;19.90;99.90;;;;;;5198347;28;20453;-44
2023/06/21 03:53:31;;;;;;;67.20;49.57;;;19.90;99.90;;;;;;5197739;28;20207;-44
2023/06/21 03:56:02;;;;;;;51.53;39.30;;;20.10;99.90;;;;;;5177806;28;20246;-45
2023/06/21 03:58:32;;;;;;;64.33;41.97;;;20.10;99.90;;;;;;5196634;28;20204;-45
2023/06/21 04:01:03;;;;;;;52.57;37.60;;;20.10;99.90;;;;;;5169725;28;20680;-45
2023/06/21 04:03:34;;;;;;;71.97;46.57;;;20.10;99.90;;;;;;5178878;28;20211;-45
2023/06/21 04:06:05;;;;;;;54.63;38.80;;;20.10;99.90;;;;;;5213679;28;20177;-45
2023/06/21 04:08:35;;;;;;;68.57;47.70;;;20.10;99.90;;;;;;5186402;28;21745;-45
2023/06/21 04:11:06;;;;;;;56.70;40.30;;;20.10;99.90;;;;;;5206617;28;20182;-45
2023/06/21 04:13:37;;;;;;;52.43;39.87;;;20.10;99.90;;;;;;5201834;28;20183;-45
2023/06/21 04:16:07;;;;;;;56.93;37.63;;;20.10;99.90;;;;;;5182086;28;20187;-45
2023/06/21 04:18:38;;;;;;;63.67;43.00;;;20.20;99.90;;;;;;5188403;28;20222;-44
2023/06/21 04:21:09;;;;;;;80.67;51.87;;;20.30;99.90;;;;;;5199322;28;20211;-44
2023/06/21 04:23:40;;;;;;;74.47;48.73;;;20.30;99.90;;;;;;5199760;28;20187;-44
2023/06/21 04:26:12;;;;;;;42.83;33.90;;;20.30;99.90;;;;;;5153078;28;20192;-44
2023/06/21 04:28:48;;;;;;;50.73;36.23;;;20.40;99.90;;;;;;5202863;28;20453;-44
2023/06/21 04:31:18;;;;;;;50.63;39.23;;;20.60;99.90;;;;;;5187633;28;20440;-45
2023/06/21 04:33:51;;;;;;;49.10;37.30;;;20.70;99.90;;;;;;5188246;28;20434;-45
2023/06/21 04:36:22;;;;;;;53.37;36.33;;;20.70;99.90;;;;;;5184223;28;20188;-46
2023/06/21 04:38:56;;;;;;;47.07;36.80;;;20.80;99.90;;;;;;5194569;28;20912;-43
2023/06/21 04:41:26;;;;;;;54.80;36.23;;;20.80;99.90;;;;;;5182457;28;20190;-46
2023/06/21 04:43:57;;;;;;;54.50;38.63;;;20.90;99.90;;;;;;5189424;28;20950;-43
2023/06/21 04:46:28;;;;;;;49.43;37.30;;;20.80;99.90;;;;;;5188837;28;20183;-43
2023/06/21 04:48:58;;;;;;;40.27;32.77;;;20.80;99.90;;;;;;5181590;28;20266;-43
2023/06/21 04:51:32;;;;;;;49.80;38.13;;;20.80;99.90;;;;;;5195968;28;20270;-42
2023/06/21 04:54:03;;;;;;;65.07;45.00;;;20.90;99.90;;;;;;5178830;28;20641;-46
2023/06/21 04:56:33;;;;;;;49.10;38.00;;;21.10;99.90;;;;;;5217303;28;20416;-43
2023/06/21 04:59:05;;;;;;;54.53;41.07;;;21.10;99.90;;;;;;5186988;28;20169;-41
2023/06/21 05:01:36;;;;;;;70.57;44.27;;;21.20;99.90;;;;;;5214569;28;20183;-42
2023/06/21 05:04:07;;;;;;;52.37;39.33;;;21.40;99.90;;;;;;5210429;28;21004;-42
2023/06/21 05:06:40;;;;;;;50.27;38.00;;;21.50;99.90;;;;;;5205815;28;20188;-43
2023/06/21 05:09:11;;;;;;;61.57;43.07;;;21.80;99.90;;;;;;5198319;28;20431;-43
2023/06/21 05:11:42;;;;;;;53.10;38.53;;;21.90;99.90;;;;;;5198197;28;20500;-43
2023/06/21 05:14:13;;;;;;;62.27;44.13;;;22.00;99.90;;;;;;5204011;28;20200;-43
2023/06/21 05:16:44;;;;;;;48.10;36.73;;;22.10;99.90;;;;;;5199531;28;20907;-43
2023/06/21 05:19:16;;;;;;;49.90;37.33;;;22.20;99.90;;;;;;5210656;28;20183;-43
2023/06/21 05:21:48;;;;;;;48.40;34.73;;;22.20;99.90;;;;;;5207755;28;20472;-42
2023/06/21 05:24:18;;;;;;;47.80;34.70;;;22.30;99.90;;;;;;5190065;28;20474;-42
2023/06/21 05:26:49;;;;;;;51.07;37.20;;;22.40;99.90;;;;;;5191757;28;20683;-41
2023/06/21 05:29:20;;;;;;;53.30;36.27;;;22.60;99.90;;;;;;5187241;28;20223;-42
2023/06/21 05:31:51;;;;;;;54.57;41.50;;;23.00;99.90;;;;;;5201376;28;20203;-42
2023/06/21 05:34:22;;;;;;;46.80;37.10;;;23.70;99.90;;;;;;5198205;28;20184;-42
2023/06/21 05:36:53;;;;;;;44.60;30.70;;;25.10;99.90;;;;;;5191531;28;20454;-42
2023/06/21 05:39:23;;;;;;;43.70;31.33;;;26.00;99.90;;;;;;5196078;28;20719;-42
2023/06/21 05:41:54;;;;;;;37.40;29.13;;;26.60;99.90;;;;;;5201410;28;20223;-44
2023/06/21 05:44:25;;;;;;;39.73;28.40;;;27.00;99.90;;;;;;5207442;28;20212;-42
2023/06/21 05:46:55;;;;;;;36.33;25.67;;;27.40;99.90;;;;;;5168948;28;20219;-42
2023/06/21 05:49:26;;;;;;;34.77;23.17;;;28.00;99.90;;;;;;5202770;28;20203;-43
2023/06/21 05:51:57;;;;;;;25.77;20.13;;;28.70;99.90;;;;;;5198206;28;20218;-43
2023/06/21 05:54:27;;;;;;;30.20;20.00;;;29.20;99.90;;;;;;5194806;28;20188;-43
2023/06/21 05:57:04;;;;;;;29.60;19.27;;;29.00;99.90;;;;;;5198441;28;20207;-41
2023/06/21 05:59:35;;;;;;;25.93;20.00;;;28.30;99.90;;;;;;5199217;28;20167;-43
2023/06/21 06:02:06;;;;;;;28.03;19.53;;;27.40;99.90;;;;;;5203948;28;20421;-43
2023/06/21 06:04:37;;;;;;;26.67;20.13;;;26.80;99.90;;;;;;5201860;28;20195;-42
2023/06/21 06:07:08;;;;;;;32.20;22.57;;;26.40;99.90;;;;;;5199200;28;20295;-42
2023/06/21 06:09:39;;;;;;;26.07;20.63;;;25.90;99.90;;;;;;5190503;28;20464;-43
2023/06/21 06:12:10;;;;;;;32.77;24.03;;;25.40;99.90;;;;;;5208011;28;20208;-43
2023/06/21 06:14:40;;;;;;;29.00;22.93;;;24.90;99.90;;;;;;5183228;28;20433;-43
2023/06/21 06:17:11;;;;;;;37.27;25.60;;;24.60;99.90;;;;;;5207889;28;20191;-42
2023/06/21 06:19:42;;;;;;;33.03;25.50;;;24.20;99.90;;;;;;5193393;28;20184;-44
2023/06/21 06:22:13;;;;;;;34.13;24.33;;;24.20;99.90;;;;;;5199835;28;20207;-42
2023/06/21 06:24:45;;;;;;;35.93;23.00;;;24.20;99.90;;;;;;5202006;28;20210;-41
2023/06/21 06:27:16;;;;;;;31.30;22.83;;;25.20;99.90;;;;;;5213423;28;20195;-42
2023/06/21 06:29:46;;;;;;;29.00;21.57;;;26.50;99.90;;;;;;5200421;28;20429;-42
2023/06/21 06:32:17;;;;;;;24.50;18.87;;;28.30;99.90;;;;;;5192606;28;20203;-43
2023/06/21 06:34:48;;;;;;;33.47;20.80;;;30.70;99.90;;;;;;5188477;28;20183;-42
2023/06/21 06:37:20;;;;;;;22.27;18.23;;;31.90;99.90;;;;;;5193266;28;20211;-43
2023/06/21 06:39:53;;;;;;;22.10;18.70;;;32.20;99.90;;;;;;5208141;28;20191;-43
2023/06/21 06:42:24;;;;;;;21.90;18.40;;;31.80;99.90;;;;;;5189421;28;20435;-43
2023/06/21 06:44:55;;;;;;;24.17;18.90;;;31.90;99.90;;;;;;5198601;28;20785;-42
2023/06/21 06:47:28;;;;;;;22.77;15.10;;;33.30;99.90;;;;;;5193497;28;20207;-43
2023/06/21 06:50:01;;;;;;;24.63;17.77;;;34.70;92.30;;;;;;5208870;28;20202;-43
2023/06/21 06:52:32;;;;;;;26.37;19.23;;;35.50;80.20;;;;;;5189683;28;20211;-43
2023/06/21 06:55:04;;;;;;;21.10;16.03;;;35.20;72.10;;;;;;5208567;28;20182;-43
2023/06/21 06:57:36;;;;;;;15.32;13.35;;;35.10;71.30;;;;;;5189293;28;20199;-43
2023/06/21 07:00:11;;;;;;;20.38;17.25;;;36.00;70.60;;;;;;5187252;28;20191;-43
2023/06/21 07:02:42;;;;;;;20.13;16.33;;;36.80;60.80;;;;;;5222425;28;20198;-46
2023/06/21 07:05:13;;;;;;;21.05;14.65;;;37.70;59.40;;;;;;5209650;28;20241;-43
2023/06/21 07:07:44;;;;;;;14.25;12.85;;;38.50;56.60;;;;;;5191292;28;20302;-43
2023/06/21 07:10:14;;;;;;;21.70;17.70;;;38.70;53.20;;;;;;5183914;28;20266;-43
2023/06/21 07:12:45;;;;;;;16.40;14.70;;;39.30;51.20;;;;;;5202173;28;20306;-42
2023/06/21 07:15:16;;;;;;;15.85;12.68;;;39.40;51.00;;;;;;5188430;28;20182;-43
2023/06/21 07:17:49;;;;;;;14.27;12.88;;;40.10;49.50;;;;;;5203803;28;20207;-44
2023/06/21 07:20:20;;;;;;;22.45;13.68;;;40.90;47.10;;;;;;5209085;28;20485;-43
2023/06/21 07:22:50;;;;;;;16.77;14.82;;;40.50;45.90;;;;;;5187974;28;20667;-42
2023/06/21 07:25:21;;;;;;;17.63;12.13;;;40.60;45.40;;;;;;5184327;28;20185;-42
2023/06/21 07:27:52;;;;;;;13.60;12.10;;;40.50;46.00;;;;;;5196337;28;20214;-43
2023/06/21 07:30:23;;;;;;;18.60;11.35;;;40.20;44.30;;;;;;5208536;28;20182;-43
2023/06/21 07:32:53;;;;;;;11.27;10.23;;;39.80;44.80;;;;;;5208744;28;20202;-44
2023/06/21 07:35:24;;;;;;;12.80;11.60;;;38.70;46.60;;;;;;5175508;28;20167;-42
2023/06/21 07:37:55;;;;;;;18.15;12.30;;;37.00;49.40;;;;;;5197033;28;20206;-43
2023/06/21 07:40:26;;;;;;;17.45;11.95;;;35.70;51.30;;;;;;5209538;28;20194;-42
2023/06/21 07:42:57;;;;;;;10.52;9.25;;;35.10;52.80;;;;;;5180597;28;20187;-44
2023/06/21 07:45:28;;;;;;;11.40;10.35;;;36.00;52.20;;;;;;5184226;28;20572;-42
2023/06/21 07:47:59;;;;;;;16.42;10.80;;;37.50;49.40;;;;;;5193683;28;20242;-44
2023/06/21 07:50:30;;;;;;;11.15;10.15;;;38.60;48.10;;;;;;5200142;28;20195;-42
2023/06/21 07:53:01;;;;;;;11.60;9.80;;;39.40;46.20;;;;;;5206315;28;20204;-44
2023/06/21 07:55:32;;;;;;;11.50;10.45;;;39.60;45.60;;;;;;5161057;28;20184;-43
2023/06/21 07:58:03;;;;;;;10.80;9.80;;;39.40;44.80;;;;;;5184835;28;20205;-43
2023/06/21 08:00:33;;;;;;;18.55;10.50;;;39.00;44.50;;;;;;5190443;28;20172;-42
2023/06/21 08:03:04;;;;;;;9.73;8.82;;;38.70;45.20;;;;;;5191180;28;20187;-43
2023/06/21 08:05:35;;;;;;;10.50;9.43;;;38.30;45.90;;;;;;5206342;28;20229;-43
2023/06/21 08:08:05;;;;;;;10.25;9.25;;;37.60;46.40;;;;;;5192242;28;20208;-44
2023/06/21 08:10:36;;;;;;;9.75;8.85;;;36.50;49.00;;;;;;5182212;28;20218;-43
2023/06/21 08:13:07;;;;;;;15.75;10.88;;;37.10;48.00;;;;;;5189992;28;20195;-43
2023/06/21 08:15:37;;;;;;;10.68;9.05;;;37.70;46.70;;;;;;5186843;28;20184;-43
2023/06/21 08:18:08;;;;;;;10.50;9.27;;;37.90;47.50;;;;;;5184132;28;20278;-43
2023/06/21 08:20:40;;;;;;;9.88;8.93;;;38.90;46.20;;;;;;5206689;28;20179;-42
2023/06/21 08:23:11;;;;;;;9.00;8.05;;;39.70;43.80;;;;;;5192307;28;20187;-43
2023/06/21 08:25:45;;;;;;;9.73;8.25;;;40.20;43.10;;;;;;5189304;28;20183;-43
2023/06/21 08:28:16;;;;;;;10.82;8.48;;;40.20;42.40;;;;;;5204961;28;20204;-44
2023/06/21 08:30:50;;;;;;;9.18;7.80;;;40.40;42.50;;;;;;5206551;28;20183;-44
2023/06/21 08:33:21;;;;;;;9.20;8.40;;;40.40;42.80;;;;;;5184205;28;20584;-42
2023/06/21 08:35:51;;;;;;;9.27;8.45;;;40.80;42.20;;;;;;5180366;28;20178;-42
2023/06/21 08:38:22;;;;;;;8.77;7.90;;;41.40;41.50;;;;;;5208201;28;20203;-42
2023/06/21 08:40:58;;;;;;;8.13;7.22;;;40.90;41.30;;;;;;5190387;28;20568;-43
2023/06/21 08:43:31;;;;;;;8.52;7.82;;;40.20;42.70;;;;;;5193464;28;20189;-41
2023/06/21 08:46:05;;;;;;;8.02;7.32;;;39.70;43.30;;;;;;5186311;28;20184;-43
2023/06/21 08:48:37;;;;;;;8.68;7.97;;;38.50;44.60;;;;;;5209217;28;20241;-43
2023/06/21 08:51:08;;;;;;;9.73;8.75;;;38.30;45.50;;;;;;5210069;28;20205;-43
2023/06/21 08:53:48;;;;;;;9.20;8.32;;;37.70;46.10;;;;;;5181470;28;20211;-42
2023/06/21 08:56:23;;;;;;;10.10;9.15;;;35.90;49.40;;;;;;5188993;28;20255;-44
2023/06/21 08:59:03;;;;;;;10.98;8.65;;;34.40;51.80;;;;;;5194129;28;20203;-42
2023/06/21 09:01:44;;;;;;;8.70;7.80;;;33.00;53.90;;;;;;5193334;28;20179;-43
2023/06/21 09:04:17;;;;;;;11.37;9.20;;;32.20;56.90;;;;;;5197904;28;20183;-42
2023/06/21 09:06:48;;;;;;;10.50;8.90;;;31.90;58.00;;;;;;5187774;28;20199;-43
2023/06/21 09:09:22;;;;;;;9.93;8.93;;;31.90;58.50;;;;;;5175294;28;21213;-42
2023/06/21 09:11:58;;;;;;;12.10;7.57;;;32.10;58.60;;;;;;5212833;28;20261;-43
2023/06/21 09:14:31;;;;;;;11.40;8.70;;;32.00;58.30;;;;;;5178495;28;20187;-43
2023/06/21 09:17:03;;;;;;;13.13;8.03;;;31.80;58.60;;;;;;5204836;28;20199;-42
2023/06/21 09:19:37;;;;;;;10.03;7.90;;;31.80;59.10;;;;;;5192837;28;20191;-42
2023/06/21 09:22:08;;;;;;;7.80;7.00;;;31.60;58.70;;;;;;5179686;28;20179;-43
2023/06/21 09:24:39;;;;;;;8.27;7.27;;;31.00;58.70;;;;;;5190674;28;20209;-42
2023/06/21 09:27:09;;;;;;;15.10;8.20;;;30.70;60.40;;;;;;5204130;28;20271;-44
2023/06/21 09:29:40;;;;;;;8.90;8.00;;;30.70;61.90;;;;;;5207764;28;20293;-43
2023/06/21 09:32:11;;;;;;;12.90;7.80;;;30.80;61.90;;;;;;5202920;28;20229;-42
2023/06/21 09:34:43;;;;;;;7.37;6.67;;;30.60;61.20;;;;;;5210253;28;20183;-42
2023/06/21 09:37:33;;;;;;;7.83;7.20;;;30.60;61.60;;;;;;5180631;28;20200;-42
2023/06/21 09:40:04;;;;;;;6.20;5.57;;;30.60;60.90;;;;;;5191319;28;20984;-41
2023/06/21 09:42:37;;;;;;;11.17;7.50;;;30.60;62.20;;;;;;5186900;28;20770;-43
2023/06/21 09:45:12;;;;;;;6.87;6.27;;;30.50;61.80;;;;;;5202610;28;20422;-43
2023/06/21 09:47:43;;;;;;;9.73;6.80;;;30.40;62.50;;;;;;5204974;28;20578;-44
2023/06/21 09:50:14;;;;;;;7.50;6.73;;;30.60;62.90;;;;;;5193325;28;20214;-44
2023/06/21 09:52:45;;;;;;;7.77;7.13;;;30.80;62.30;;;;;;5211230;28;20718;-43
2023/06/21 09:55:16;;;;;;;10.90;8.10;;;30.50;62.00;;;;;;5184768;28;20263;-43
2023/06/21 09:57:52;;;;;;;5.93;5.53;;;30.00;63.20;;;;;;5195768;28;20458;-44
2023/06/21 10:00:23;;;;;;;7.67;7.07;;;29.60;66.20;;;;;;5192856;28;20467;-44
2023/06/21 10:02:54;;;;;;;7.07;6.37;;;29.70;66.20;;;;;;5206552;28;20478;-42
2023/06/21 10:05:25;;;;;;;7.70;6.90;;;29.90;65.60;;;;;;5175041;28;20476;-43
2023/06/21 10:07:56;;;;;;;7.60;6.93;;;29.80;65.30;;;;;;5188204;28;20257;-43
2023/06/21 10:10:28;;;;;;;11.60;6.93;;;29.90;66.30;;;;;;5197879;28;20275;-43
2023/06/21 10:12:59;;;;;;;7.97;7.20;;;30.10;66.10;;;;;;5191545;28;20863;-43
2023/06/21 10:15:29;;;;;;;8.53;7.73;;;30.00;66.10;;;;;;5205333;28;20529;-43
2023/06/21 10:18:02;;;;;;;7.47;6.63;;;29.90;66.80;;;;;;5202209;28;20203;-43
2023/06/21 10:20:35;;;;;;;8.20;6.80;;;29.90;65.10;;;;;;5197623;28;20603;-43
2023/06/21 10:23:08;;;;;;;11.47;8.27;;;30.00;65.60;;;;;;5189507;28;20536;-43
2023/06/21 10:25:42;;;;;;;11.07;8.53;;;30.00;65.20;;;;;;5206666;28;20437;-43
2023/06/21 10:28:17;;;;;;;21.50;13.37;;;30.00;66.50;;;;;;5188448;28;20449;-44
2023/06/21 10:30:54;;;;;;;22.00;10.97;;;29.90;65.70;;;;;;5208950;28;20522;-43
2023/06/21 10:33:29;;;;;;;8.97;8.17;;;29.80;64.80;;;;;;5187516;28;20970;-43
2023/06/21 10:36:02;;;;;;;8.50;7.60;;;29.60;66.40;;;;;;5210212;28;20487;-43
2023/06/21 10:38:46;;;;;;;9.43;7.20;;;29.40;67.00;;;;;;5191843;28;20449;-44
2023/06/21 10:41:17;;;;;;;17.57;7.07;;;29.30;68.50;;;;;;5189715;28;20441;-43
2023/06/21 10:43:48;;;;;;;9.30;7.47;;;29.50;68.20;;;;;;5201689;28;20437;-43
2023/06/21 10:46:20;;;;;;;20.10;11.23;;;29.70;66.30;;;;;;5199364;28;20464;-45
2023/06/21 10:48:51;;;;;;;8.10;7.30;;;30.00;63.90;;;;;;5203789;28;20462;-42
2023/06/21 10:51:23;;;;;;;7.93;7.13;;;30.10;63.50;;;;;;5202064;28;20415;-42
2023/06/21 10:53:55;;;;;;;6.20;5.70;;;30.20;63.40;;;;;;5190415;28;20783;-43
2023/06/21 10:56:27;;;;;;;14.07;7.60;;;30.30;63.30;;;;;;5195167;28;20188;-43
2023/06/21 10:58:58;;;;;;;10.10;6.73;;;30.50;62.20;;;;;;5188161;28;20171;-44
2023/06/21 11:01:29;;;;;;;7.83;6.00;;;30.70;62.30;;;;;;5201056;28;20191;-43
2023/06/21 11:04:00;;;;;;;13.50;8.57;;;30.50;61.80;;;;;;5202853;28;20210;-41
2023/06/21 11:06:34;;;;;;;7.63;6.40;;;30.20;62.20;;;;;;5205871;28;20649;-42
2023/06/21 11:09:10;;;;;;;9.90;7.23;;;29.90;63.60;;;;;;5174939;28;20233;-43
2023/06/21 11:11:50;;;;;;;11.67;10.57;;;29.80;64.60;;;;;;5192775;28;20457;-44
2023/06/21 11:14:31;;;;;;;7.80;5.87;;;29.90;64.90;;;;;;5205812;28;20430;-42
2023/06/21 11:17:11;;;;;;;8.53;7.07;;;30.10;64.60;;;;;;5203562;28;20445;-42
2023/06/21 11:19:47;;;;;;;7.93;7.13;;;30.20;63.90;;;;;;5184839;28;20457;-42
2023/06/21 11:22:24;;;;;;;8.80;6.57;;;30.40;63.70;;;;;;5199016;28;20214;-42
2023/06/21 11:25:00;;;;;;;7.30;5.80;;;30.20;61.90;;;;;;5188891;28;20259;-44
2023/06/21 11:27:31;;;;;;;6.37;5.77;;;30.00;61.40;;;;;;5195686;28;20218;-43
2023/06/21 11:30:09;;;;;;;11.70;5.90;;;29.40;62.40;;;;;;5208139;28;20422;-42
2023/06/21 11:32:55;;;;;;;7.67;5.97;;;29.20;63.20;;;;;;5177686;28;20461;-43
2023/06/21 11:35:51;;;;;;;21.43;7.80;;;29.30;64.20;;;;;;5192718;28;20444;-44
2023/06/21 11:38:22;;;;;;;7.33;5.67;;;29.60;63.90;;;;;;5185281;28;20446;-43
2023/06/21 11:40:53;;;;;;;8.30;7.50;;;29.70;63.70;;;;;;5204492;28;20191;-43
2023/06/21 11:43:24;;;;;;;6.17;5.53;;;29.80;62.50;;;;;;5185195;28;20183;-43
2023/06/21 11:46:02;;;;;;;13.00;7.20;;;29.80;62.10;;;;;;5203672;28;20719;-42
2023/06/21 11:48:39;;;;;;;9.40;5.33;;;29.60;63.60;;;;;;5209546;28;20496;-43
2023/06/21 11:51:12;;;;;;;6.47;5.87;;;29.60;64.10;;;;;;5205938;28;20424;-43
2023/06/21 11:53:43;;;;;;;7.30;4.87;;;29.40;64.80;;;;;;5191716;28;20545;-42
2023/06/21 11:56:16;;;;;;;20.30;7.07;;;29.40;65.40;;;;;;5201410;28;20465;-42
2023/06/21 11:58:50;;;;;;;5.40;4.90;;;29.50;65.90;;;;;;5198633;28;20195;-43
2023/06/21 12:01:20;;;;;;;9.20;6.63;;;29.50;65.80;;;;;;5192412;28;20430;-42
2023/06/21 12:03:58;;;;;;;6.10;5.50;;;29.50;65.50;;;;;;5210368;28;20430;-43
2023/06/21 12:06:29;;;;;;;7.27;6.50;;;29.50;65.80;;;;;;5207527;28;20186;-43
2023/06/21 12:09:00;;;;;;;35.90;10.73;;;29.60;66.00;;;;;;5213023;28;20496;-43
2023/06/21 12:11:30;;;;;;;49.00;15.03;;;29.60;66.10;;;;;;5211803;28;20190;-42
2023/06/21 12:14:02;;;;;;;23.17;9.10;;;29.70;65.80;;;;;;5203210;28;20190;-42
2023/06/21 12:16:33;;;;;;;42.27;12.70;;;29.80;65.60;;;;;;5208020;28;20195;-43
2023/06/21 12:19:08;;;;;;;89.43;18.30;;;30.10;64.50;;;;;;5210160;28;20198;-43
2023/06/21 12:21:39;;;;;;;53.20;14.87;;;30.20;64.10;;;;;;5207847;28;20167;-43
2023/06/21 12:24:09;;;;;;;83.13;19.40;;;30.40;64.30;;;;;;5187298;28;20430;-42
2023/06/21 12:26:50;;;;;;;37.47;10.40;;;30.50;63.60;;;;;;5198889;28;20183;-43
2023/06/21 12:29:21;;;;;;;10.33;6.33;;;30.60;63.00;;;;;;5203334;28;20698;-42
2023/06/21 12:31:53;;;;;;;10.40;6.93;;;30.50;62.70;;;;;;5196021;28;20211;-42
2023/06/21 12:34:24;;;;;;;9.00;7.33;;;30.30;63.40;;;;;;5190995;28;20190;-44
2023/06/21 12:36:58;;;;;;;6.53;4.90;;;30.20;64.40;;;;;;5207699;28;20195;-42
2023/06/21 12:39:29;;;;;;;7.50;5.83;;;29.90;63.60;;;;;;5207421;28;20491;-44
2023/06/21 12:42:00;;;;;;;6.13;4.43;;;29.90;64.50;;;;;;5215265;28;20581;-44
2023/06/21 12:44:31;;;;;;;5.10;4.60;;;29.70;64.40;;;;;;5191234;28;20201;-42
2023/06/21 12:47:05;;;;;;;12.27;5.70;;;29.70;65.20;;;;;;5200119;28;20278;-44
2023/06/21 12:49:36;;;;;;;5.90;5.30;;;29.70;65.60;;;;;;5211089;28;20442;-43
2023/06/21 12:52:07;;;;;;;8.23;5.30;;;29.60;65.20;;;;;;5214880;28;20457;-43
2023/06/21 12:54:54;;;;;;;4.77;4.33;;;29.50;65.90;;;;;;5194537;28;20179;-44
2023/06/21 12:57:29;;;;;;;9.27;5.30;;;29.50;65.30;;;;;;5206090;28;20198;-43
2023/06/21 13:00:00;;;;;;;6.50;5.57;;;29.60;64.10;;;;;;5199043;28;20929;-43